Weather at Heritage Field

Public forecast

Using degrees Fahrenheit for public forecast. Weather courtesy of forecast.io.

Current aviation weather report (METAR) for Heritage Field

Report is more than 6 hours old.

2022/11/14 14:54 (retrieved 2 years ago)

KPTW 141454Z AUTO 34012KT 10SM CLR 04/M07 A3038 RMK AO2 SLP287 T00391067 50020

Closest aviation forecast (TAF) to Heritage Field

Forecast is more than 12 hours old.

Closest forecast is Reading Regional Airport (Carl A Spaatz Field), 20.5 nm (37.9 km) WNW.

2023/02/22 20:36 Ammendment (retrieved 1 year ago)

TAF AMD KRDG 221933Z 2220/2318 12005KT 3SM -RA BR OVC040 FM222300 10006KT 3SM BR OVC020 FM230400 09007KT 2SM BR OVC008 FM230800 VRB04KT 3SM BR OVC003 WS020/21035KT FM231400 30012G25KT P6SM BKN030